createdAt,value
2022-08-26T00:02:13.147Z,16.75
2022-08-26T00:05:17.476Z,15.73
2022-08-26T00:08:21.129Z,16.77
2022-08-26T00:14:30.941Z,15.25
2022-08-26T00:17:33.920Z,15.32
2022-08-26T00:20:36.312Z,14.80
2022-08-26T00:23:38.233Z,15.10
2022-08-26T00:26:41.675Z,14.90
2022-08-26T00:29:44.901Z,14.10
2022-08-26T00:32:46.844Z,13.02
2022-08-26T00:38:53.596Z,12.82
2022-08-26T00:41:55.361Z,14.10
2022-08-26T00:44:57.631Z,13.73
2022-08-26T00:48:03.811Z,12.98
2022-08-26T00:51:23.135Z,13.25
2022-08-26T00:54:32.348Z,12.82
2022-08-26T00:57:35.955Z,12.50
2022-08-26T01:00:37.966Z,12.55
2022-08-26T01:03:41.838Z,12.10
2022-08-26T01:06:44.378Z,12.18
2022-08-26T01:09:46.687Z,11.13
2022-08-26T01:12:53.364Z,10.68
2022-08-26T01:16:00.983Z,10.77
2022-08-26T01:19:16.261Z,10.77
2022-08-26T01:22:28.737Z,9.73
2022-08-26T01:25:33.517Z,11.10
2022-08-26T01:28:38.998Z,10.82
2022-08-26T01:31:47.331Z,9.82
2022-08-26T01:34:49.569Z,8.90
2022-08-26T01:37:54.888Z,8.98
2022-08-26T01:40:56.884Z,8.32
2022-08-26T01:44:01.261Z,7.50
2022-08-26T01:47:05.173Z,7.53
2022-08-26T01:50:15.749Z,7.75
2022-08-26T01:53:30.104Z,7.22
2022-08-26T01:56:33.278Z,6.57
2022-08-26T01:59:38.460Z,7.10
2022-08-26T02:02:43.721Z,6.30
2022-08-26T02:05:58.020Z,6.78
2022-08-26T02:09:02.709Z,6.22
2022-08-26T02:12:06.170Z,5.60
2022-08-26T02:15:11.196Z,4.88
2022-08-26T02:18:14.034Z,4.80
2022-08-26T02:21:17.059Z,4.55
2022-08-26T02:24:46.122Z,4.60
2022-08-26T02:27:48.485Z,4.10
2022-08-26T02:30:50.401Z,3.90
2022-08-26T02:33:52.842Z,3.70
2022-08-26T02:36:57.152Z,3.80
2022-08-26T02:39:59.188Z,3.80
2022-08-26T02:43:01.449Z,3.45
2022-08-26T02:46:03.819Z,3.40
2022-08-26T02:49:06.670Z,3.90
2022-08-26T02:52:08.640Z,3.83
2022-08-26T02:55:10.847Z,3.85
2022-08-26T02:58:12.674Z,5.43
2022-08-26T03:01:26.789Z,5.50
2022-08-26T03:04:29.611Z,6.00
2022-08-26T03:07:35.118Z,6.93
2022-08-26T03:10:37.161Z,6.40
2022-08-26T03:13:39.962Z,5.05
2022-08-26T03:16:41.937Z,4.72
2022-08-26T03:19:43.804Z,4.40
2022-08-26T03:22:46.621Z,4.20
2022-08-26T03:25:52.605Z,3.67
2022-08-26T03:29:14.333Z,3.90
2022-08-26T03:32:16.868Z,3.50
2022-08-26T03:35:18.667Z,3.13
2022-08-26T03:38:25.410Z,3.15
2022-08-26T03:41:27.397Z,2.90
2022-08-26T03:44:29.139Z,3.38
2022-08-26T03:47:31.972Z,2.95
2022-08-26T03:50:35.755Z,2.80
2022-08-26T03:53:37.836Z,2.88
2022-08-26T03:56:40.260Z,3.20
2022-08-26T03:59:42.569Z,3.22
2022-08-26T04:02:46.103Z,3.05
2022-08-26T04:05:52.270Z,2.63
2022-08-26T04:08:56.445Z,3.08
2022-08-26T04:11:58.700Z,2.72
2022-08-26T04:15:00.470Z,2.83
2022-08-26T04:18:04.933Z,2.58
2022-08-26T04:21:07.885Z,2.28
2022-08-26T04:24:12.511Z,2.67
2022-08-26T04:27:14.484Z,3.00
2022-08-26T04:30:16.711Z,2.35
2022-08-26T04:33:18.727Z,2.45
2022-08-26T04:36:34.988Z,2.00
2022-08-26T04:39:38.158Z,2.53
2022-08-26T04:42:39.907Z,2.65
2022-08-26T04:45:43.610Z,2.20
2022-08-26T04:48:45.901Z,2.60
2022-08-26T04:51:48.875Z,2.60
2022-08-26T04:57:53.359Z,2.42
2022-08-26T05:00:56.598Z,2.55
2022-08-26T05:03:59.035Z,2.33
2022-08-26T05:07:02.798Z,2.40
2022-08-26T05:10:08.658Z,2.58
2022-08-26T05:13:15.866Z,2.53
2022-08-26T05:16:17.935Z,2.40
2022-08-26T05:19:19.842Z,2.38
2022-08-26T05:25:25.089Z,2.55
2022-08-26T05:28:30.130Z,2.33
2022-08-26T05:31:33.602Z,2.53
2022-08-26T05:34:35.567Z,2.78
2022-08-26T05:37:40.346Z,2.67
2022-08-26T05:40:45.411Z,2.58
2022-08-26T05:43:47.941Z,2.10
2022-08-26T05:46:51.826Z,2.78
2022-08-26T05:49:54.424Z,2.60
2022-08-26T05:52:56.298Z,2.57
2022-08-26T05:55:58.476Z,2.13
2022-08-26T05:59:02.663Z,2.45
2022-08-26T06:02:07.384Z,2.05
2022-08-26T06:05:09.732Z,2.28
2022-08-26T06:08:11.550Z,2.50
2022-08-26T06:11:18.708Z,2.65
2022-08-26T06:14:20.553Z,2.40
2022-08-26T06:17:22.407Z,2.45
2022-08-26T06:20:25.243Z,2.78
2022-08-26T06:23:48.276Z,2.78
2022-08-26T06:26:57.129Z,2.40
2022-08-26T06:29:58.844Z,2.88
2022-08-26T06:33:01.054Z,2.30
2022-08-26T06:36:04.094Z,2.33
2022-08-26T06:39:09.915Z,2.47
2022-08-26T06:42:12.043Z,2.25
2022-08-26T06:45:14.111Z,2.37
2022-08-26T06:48:18.608Z,2.78
2022-08-26T06:51:28.414Z,2.78
2022-08-26T06:54:31.744Z,3.00
2022-08-26T06:57:34.877Z,2.40
2022-08-26T07:00:40.218Z,2.72
2022-08-26T07:03:43.403Z,3.40
2022-08-26T07:06:50.130Z,2.80
2022-08-26T07:09:55.270Z,3.30
2022-08-26T07:12:57.054Z,3.13
2022-08-26T07:16:03.016Z,2.80
2022-08-26T07:19:11.195Z,3.15
2022-08-26T07:22:13.289Z,2.40
2022-08-26T07:25:16.138Z,2.95
2022-08-26T07:28:18.257Z,2.92
2022-08-26T07:31:22.977Z,3.22
2022-08-26T07:34:25.317Z,3.42
2022-08-26T07:37:28.211Z,3.42
2022-08-26T07:40:34.005Z,3.10
2022-08-26T07:43:37.177Z,3.33
2022-08-26T07:46:43.982Z,3.10
2022-08-26T07:49:45.944Z,3.17
2022-08-26T07:52:49.803Z,3.53
2022-08-26T07:55:52.030Z,3.47
2022-08-26T07:58:54.242Z,3.17
2022-08-26T08:01:59.157Z,3.08
2022-08-26T08:05:01.252Z,3.17
2022-08-26T08:08:26.855Z,2.90
2022-08-26T08:11:31.011Z,3.20
2022-08-26T08:14:34.600Z,2.95
2022-08-26T08:17:37.098Z,3.30
2022-08-26T08:20:40.547Z,3.00
2022-08-26T08:23:47.575Z,2.80
2022-08-26T08:26:49.290Z,2.67
2022-08-26T08:29:54.143Z,2.58
2022-08-26T08:32:56.386Z,2.72
2022-08-26T08:36:01.688Z,2.42
2022-08-26T08:39:04.139Z,1.90
2022-08-26T08:42:14.045Z,2.17
2022-08-26T08:45:37.234Z,2.25
2022-08-26T08:48:44.796Z,1.95
2022-08-26T08:52:04.521Z,1.90
2022-08-26T08:55:10.971Z,1.95
2022-08-26T08:58:20.644Z,2.28
2022-08-26T09:01:40.866Z,2.30
2022-08-26T09:05:21.719Z,2.42
2022-08-26T09:08:29.263Z,2.40
2022-08-26T09:11:31.135Z,2.30
2022-08-26T09:14:33.885Z,2.10
2022-08-26T09:17:53.167Z,1.70
2022-08-26T09:21:07.984Z,1.70
2022-08-26T09:24:14.784Z,1.90
2022-08-26T09:27:50.950Z,1.48
2022-08-26T09:31:11.453Z,1.58
2022-08-26T09:34:27.379Z,1.38
2022-08-26T09:40:59.095Z,1.67
2022-08-26T09:44:14.670Z,1.30
2022-08-26T09:47:23.266Z,1.70
2022-08-26T09:50:36.108Z,1.73
2022-08-26T09:53:54.950Z,1.52
2022-08-26T09:57:40.422Z,1.92
2022-08-26T10:00:56.906Z,1.83
2022-08-26T10:04:04.772Z,1.33
2022-08-26T10:07:08.200Z,1.45
2022-08-26T10:13:34.141Z,1.60
2022-08-26T10:16:54.714Z,1.48
2022-08-26T10:20:03.802Z,1.60
2022-08-26T10:23:14.904Z,1.52
2022-08-26T10:26:22.175Z,1.67
2022-08-26T10:29:31.191Z,1.58
2022-08-26T10:32:41.489Z,1.50
2022-08-26T10:35:54.094Z,2.10
2022-08-26T10:39:01.938Z,1.70
2022-08-26T10:42:12.999Z,1.55
2022-08-26T10:45:25.255Z,1.67
2022-08-26T10:48:46.680Z,1.70
2022-08-26T10:52:12.262Z,2.30
2022-08-26T10:56:02.832Z,2.67
2022-08-26T10:59:43.776Z,2.90
2022-08-26T11:02:50.390Z,4.30
2022-08-26T11:06:19.638Z,3.67
2022-08-26T11:09:45.300Z,3.80
2022-08-26T11:13:04.538Z,4.18
2022-08-26T11:16:08.205Z,4.97
2022-08-26T11:22:27.140Z,4.60
2022-08-26T11:25:30.870Z,4.53
2022-08-26T11:28:36.842Z,5.43
2022-08-26T11:31:38.916Z,5.72
2022-08-26T11:34:57.141Z,5.32
2022-08-26T11:38:23.914Z,5.88
2022-08-26T11:41:29.880Z,5.55
2022-08-26T11:44:41.131Z,6.28
2022-08-26T11:47:51.541Z,6.47
2022-08-26T11:50:55.601Z,6.18
2022-08-26T11:54:35.223Z,6.35
2022-08-26T11:57:47.662Z,6.07
2022-08-26T12:00:59.866Z,7.05
2022-08-26T12:04:04.649Z,7.30
2022-08-26T12:07:08.833Z,6.30
2022-08-26T12:10:24.291Z,5.95
2022-08-26T12:13:31.577Z,5.53
2022-08-26T12:16:39.375Z,5.60
2022-08-26T12:19:41.660Z,5.22
2022-08-26T12:22:48.228Z,5.03
2022-08-26T12:25:53.963Z,4.80
2022-08-26T12:28:55.749Z,4.97
2022-08-26T12:32:24.897Z,5.07
2022-08-26T12:35:28.803Z,5.32
2022-08-26T12:38:35.103Z,5.28
2022-08-26T12:41:41.834Z,5.57
2022-08-26T12:45:03.352Z,5.10
2022-08-26T12:48:29.748Z,5.72
2022-08-26T12:51:33.096Z,5.50
2022-08-26T12:58:22.947Z,6.13
2022-08-26T13:01:25.113Z,5.43
2022-08-26T13:04:41.133Z,4.43
2022-08-26T13:07:42.903Z,4.90
2022-08-26T13:10:47.757Z,4.85
2022-08-26T13:13:52.044Z,5.60
2022-08-26T13:16:55.426Z,4.82
2022-08-26T13:20:03.310Z,4.10
2022-08-26T13:23:06.020Z,4.30
2022-08-26T13:26:08.211Z,3.90
2022-08-26T13:29:10.584Z,3.65
2022-08-26T13:32:12.634Z,4.33
2022-08-26T13:35:15.006Z,4.10
2022-08-26T13:38:32.909Z,4.05
2022-08-26T13:41:36.232Z,4.45
2022-08-26T13:44:39.092Z,5.15
2022-08-26T13:47:41.068Z,3.97
2022-08-26T13:50:43.007Z,4.13
2022-08-26T13:53:44.853Z,3.70
2022-08-26T13:56:47.071Z,3.17
2022-08-26T13:59:48.859Z,3.30
2022-08-26T14:02:51.134Z,3.20
2022-08-26T14:05:53.531Z,3.25
2022-08-26T14:08:55.287Z,3.30
2022-08-26T14:11:58.924Z,2.53
2022-08-26T14:15:01.701Z,3.03
2022-08-26T14:18:05.532Z,2.53
2022-08-26T14:21:12.873Z,2.90
2022-08-26T14:24:14.784Z,2.83
2022-08-26T14:27:17.057Z,3.33
2022-08-26T14:30:19.774Z,2.72
2022-08-26T14:33:26.657Z,3.00
2022-08-26T14:36:28.487Z,2.80
2022-08-26T14:39:30.482Z,2.80
2022-08-26T14:42:32.443Z,2.50
2022-08-26T14:45:43.572Z,2.30
2022-08-26T14:48:45.548Z,2.33
2022-08-26T14:51:48.323Z,2.13
2022-08-26T14:54:53.759Z,2.30
2022-08-26T14:57:57.176Z,2.25
2022-08-26T15:00:59.465Z,1.73
2022-08-26T15:04:06.073Z,1.75
2022-08-26T15:07:09.064Z,1.90
2022-08-26T15:10:16.172Z,1.42
2022-08-26T15:16:19.876Z,1.30
2022-08-26T15:19:24.480Z,2.03
2022-08-26T15:22:29.399Z,1.40
2022-08-26T15:25:32.076Z,1.58
2022-08-26T15:28:34.973Z,2.08
2022-08-26T15:31:36.811Z,2.20
2022-08-26T15:34:39.108Z,1.70
2022-08-26T15:37:41.256Z,1.40
2022-08-26T15:40:43.449Z,1.55
2022-08-26T15:43:45.475Z,1.40
2022-08-26T15:46:49.369Z,1.80
2022-08-26T15:49:51.279Z,1.35
2022-08-26T15:52:52.971Z,1.48
2022-08-26T15:55:56.627Z,1.77
2022-08-26T15:59:00.554Z,1.27
2022-08-26T16:02:03.293Z,1.50
2022-08-26T16:05:05.288Z,1.30
2022-08-26T16:08:08.249Z,1.40
2022-08-26T16:11:10.757Z,1.30
2022-08-26T16:14:12.547Z,1.75
2022-08-26T16:17:14.322Z,1.45
2022-08-26T16:20:17.034Z,1.48
2022-08-26T16:23:19.265Z,1.50
2022-08-26T16:26:26.045Z,1.50
2022-08-26T16:29:28.271Z,1.75
2022-08-26T16:32:31.313Z,1.75
2022-08-26T16:35:33.216Z,1.60
2022-08-26T16:38:35.888Z,1.67
2022-08-26T16:41:37.830Z,1.40
2022-08-26T16:44:45.386Z,1.40
2022-08-26T16:47:50.345Z,1.60
2022-08-26T16:50:54.423Z,1.38
2022-08-26T16:54:00.477Z,1.20
2022-08-26T16:57:02.810Z,1.35
2022-08-26T17:00:10.141Z,1.55
2022-08-26T17:03:13.634Z,1.60
2022-08-26T17:06:15.765Z,1.63
2022-08-26T17:09:17.519Z,1.90
2022-08-26T17:12:19.420Z,1.80
2022-08-26T17:15:23.791Z,1.73
2022-08-26T17:18:28.553Z,1.65
2022-08-26T17:21:31.930Z,1.95
2022-08-26T17:27:36.719Z,1.95
2022-08-26T17:30:39.280Z,1.55
2022-08-26T17:33:41.604Z,1.77
2022-08-26T17:36:43.685Z,1.70
2022-08-26T17:39:45.704Z,1.80
2022-08-26T17:42:48.185Z,1.98
2022-08-26T17:45:50.792Z,2.03
2022-08-26T17:48:52.781Z,2.42
2022-08-26T17:51:58.530Z,1.92
2022-08-26T17:55:01.071Z,2.45
2022-08-26T17:58:03.907Z,2.08
2022-08-26T18:01:09.192Z,1.63
2022-08-26T18:04:11.934Z,2.22
2022-08-26T18:07:14.040Z,1.85
2022-08-26T18:10:18.316Z,1.70
2022-08-26T18:13:20.337Z,1.80
2022-08-26T18:16:22.315Z,2.00
2022-08-26T18:19:24.345Z,1.80
2022-08-26T18:22:26.290Z,1.70
2022-08-26T18:25:28.952Z,1.40
2022-08-26T18:28:31.012Z,1.90
2022-08-26T18:31:34.937Z,1.98
2022-08-26T18:34:39.623Z,1.80
2022-08-26T18:37:41.730Z,1.85
2022-08-26T18:40:45.220Z,2.05
2022-08-26T18:43:48.116Z,2.28
2022-08-26T18:46:51.016Z,2.25
2022-08-26T18:49:52.979Z,2.60
2022-08-26T18:52:54.726Z,2.08
2022-08-26T18:55:57.396Z,2.05
2022-08-26T18:58:59.908Z,2.00
2022-08-26T19:02:01.755Z,2.40
2022-08-26T19:05:04.529Z,2.05
2022-08-26T19:08:10.648Z,1.88
2022-08-26T19:11:14.202Z,1.70
2022-08-26T19:14:16.341Z,2.30
2022-08-26T19:17:18.189Z,1.55
2022-08-26T19:20:24.696Z,1.60
2022-08-26T19:23:32.104Z,1.40
2022-08-26T19:26:35.257Z,2.10
2022-08-26T19:29:37.815Z,1.83
2022-08-26T19:32:39.788Z,2.00
2022-08-26T19:35:43.041Z,2.08
2022-08-26T19:38:45.833Z,1.70
2022-08-26T19:41:47.738Z,2.20
2022-08-26T19:45:07.731Z,1.95
2022-08-26T19:48:18.287Z,2.03
2022-08-26T19:51:29.435Z,1.70
2022-08-26T19:54:31.373Z,1.95
2022-08-26T19:57:34.515Z,1.60
2022-08-26T20:00:39.636Z,1.75
2022-08-26T20:03:42.509Z,1.73
2022-08-26T20:06:44.592Z,2.00
2022-08-26T20:09:47.638Z,1.83
2022-08-26T20:12:51.944Z,1.50
2022-08-26T20:15:53.947Z,1.50
2022-08-26T20:19:14.220Z,1.80
2022-08-26T20:22:17.422Z,1.77
2022-08-26T20:25:20.254Z,1.40
2022-08-26T20:28:22.703Z,1.52
2022-08-26T20:31:25.621Z,1.63
2022-08-26T20:34:27.961Z,1.50
2022-08-26T20:37:29.991Z,1.60
2022-08-26T20:40:32.492Z,1.60
2022-08-26T20:43:34.588Z,1.70
2022-08-26T20:46:37.210Z,1.40
2022-08-26T20:49:39.167Z,1.60
2022-08-26T20:52:44.150Z,1.80
2022-08-26T20:55:46.012Z,1.55
2022-08-26T20:58:47.796Z,1.52
2022-08-26T21:01:49.903Z,1.60
2022-08-26T21:04:51.853Z,2.03
2022-08-26T21:07:53.751Z,1.80
2022-08-26T21:10:56.146Z,1.60
2022-08-26T21:14:15.637Z,1.40
2022-08-26T21:17:18.057Z,2.08
2022-08-26T21:20:20.729Z,3.60
2022-08-26T21:23:24.536Z,2.72
2022-08-26T21:26:29.810Z,1.95
2022-08-26T21:29:31.674Z,2.97
2022-08-26T21:32:33.541Z,2.40
2022-08-26T21:35:35.817Z,1.52
2022-08-26T21:38:38.829Z,1.90
2022-08-26T21:41:42.325Z,1.42
2022-08-26T21:44:44.853Z,1.60
2022-08-26T21:47:54.540Z,1.65
2022-08-26T21:50:57.282Z,1.27
2022-08-26T21:54:00.977Z,1.45
2022-08-26T21:57:03.261Z,1.50
2022-08-26T22:00:08.923Z,1.48
2022-08-26T22:03:10.688Z,1.27
2022-08-26T22:06:12.905Z,1.50
2022-08-26T22:09:17.267Z,1.13
2022-08-26T22:12:19.358Z,1.83
2022-08-26T22:15:23.252Z,1.50
2022-08-26T22:18:26.627Z,1.25
2022-08-26T22:24:31.706Z,1.50
2022-08-26T22:27:33.437Z,1.50
2022-08-26T22:30:43.955Z,1.70
2022-08-26T22:33:46.055Z,1.38
2022-08-26T22:36:49.553Z,1.75
2022-08-26T22:39:51.548Z,1.10
2022-08-26T22:42:55.712Z,1.55
2022-08-26T22:46:02.249Z,1.70
2022-08-26T22:49:07.209Z,1.42
2022-08-26T22:52:09.153Z,1.50
2022-08-26T22:55:11.000Z,1.30
2022-08-26T22:58:14.848Z,2.00
2022-08-26T23:01:17.053Z,1.40
2022-08-26T23:04:18.863Z,1.30
2022-08-26T23:07:20.716Z,1.40
2022-08-26T23:10:23.331Z,1.92
2022-08-26T23:13:25.065Z,1.47
2022-08-26T23:16:27.103Z,1.42
2022-08-26T23:19:28.973Z,1.70
2022-08-26T23:22:31.433Z,1.33
2022-08-26T23:25:36.677Z,1.50
2022-08-26T23:28:39.661Z,1.35
2022-08-26T23:31:42.788Z,1.92
2022-08-26T23:34:56.940Z,1.45
2022-08-26T23:38:08.752Z,2.13
2022-08-26T23:41:11.096Z,1.88
2022-08-26T23:44:14.197Z,1.30
2022-08-26T23:47:16.977Z,1.38
2022-08-26T23:50:44.046Z,1.50
2022-08-26T23:53:46.102Z,1.50
2022-08-26T23:56:48.202Z,1.67
2022-08-26T23:59:50.605Z,1.90
